Terminal Aerodrome Forecast
Issued by NWS Kansas City/Pleasant Hill, MO

Home | Current Version | Previous Version | Text Only | Print | Product List | Glossary On
Versions: 1 2 3 4 5 6 7 8 9 10 11 12 13 14 15 16 17 18 19 20
850
FTUS43 KEAX 242147 AAA
TAFMCI
TAF AMD
KMCI 242147Z 2422/2518 17010KT P6SM VCTS SCT040CB BKN250
      TEMPO 2422/2424 5SM -TSRA BR BKN040CB
     FM251200 19010KT P6SM BKN100=

USA.gov is the U.S. government's official web portal to all federal, state and local government web resources and services.